sensor_id;sensor_type;location;lat;lon;timestamp;P1;durP1;ratioP1;P2;durP2;ratioP2
77332;SDS011;66408;51.326;12.070;2023-07-29T00:01:27;1.20;;;0.80;;
77332;SDS011;66408;51.326;12.070;2023-07-29T00:03:53;1.20;;;0.70;;
77332;SDS011;66408;51.326;12.070;2023-07-29T00:06:20;0.98;;;0.75;;
77332;SDS011;66408;51.326;12.070;2023-07-29T00:08:47;1.02;;;0.77;;
77332;SDS011;66408;51.326;12.070;2023-07-29T00:11:13;1.85;;;0.90;;
77332;SDS011;66408;51.326;12.070;2023-07-29T00:13:40;1.13;;;0.80;;
77332;SDS011;66408;51.326;12.070;2023-07-29T00:16:06;2.05;;;0.80;;
77332;SDS011;66408;51.326;12.070;2023-07-29T00:18:33;1.05;;;0.70;;
77332;SDS011;66408;51.326;12.070;2023-07-29T00:20:59;1.52;;;0.90;;
77332;SDS011;66408;51.326;12.070;2023-07-29T00:23:26;1.13;;;0.82;;
77332;SDS011;66408;51.326;12.070;2023-07-29T00:25:52;2.00;;;0.90;;
77332;SDS011;66408;51.326;12.070;2023-07-29T00:28:19;1.25;;;0.75;;
77332;SDS011;66408;51.326;12.070;2023-07-29T00:30:49;1.50;;;1.00;;
77332;SDS011;66408;51.326;12.070;2023-07-29T00:33:15;2.28;;;0.90;;
77332;SDS011;66408;51.326;12.070;2023-07-29T00:35:42;2.70;;;1.00;;
77332;SDS011;66408;51.326;12.070;2023-07-29T00:38:08;0.90;;;0.73;;
77332;SDS011;66408;51.326;12.070;2023-07-29T00:40:35;1.30;;;0.90;;
77332;SDS011;66408;51.326;12.070;2023-07-29T00:43:02;1.35;;;0.82;;
77332;SDS011;66408;51.326;12.070;2023-07-29T00:45:29;1.30;;;0.82;;
77332;SDS011;66408;51.326;12.070;2023-07-29T00:47:57;1.70;;;1.15;;
77332;SDS011;66408;51.326;12.070;2023-07-29T00:50:25;1.50;;;1.10;;
77332;SDS011;66408;51.326;12.070;2023-07-29T00:57:47;1.98;;;0.88;;
77332;SDS011;66408;51.326;12.070;2023-07-29T01:00:15;1.40;;;1.00;;
77332;SDS011;66408;51.326;12.070;2023-07-29T01:02:42;2.38;;;1.00;;
77332;SDS011;66408;51.326;12.070;2023-07-29T01:05:11;1.80;;;1.20;;
77332;SDS011;66408;51.326;12.070;2023-07-29T01:07:44;1.30;;;1.10;;
77332;SDS011;66408;51.326;12.070;2023-07-29T01:13:42;2.00;;;0.90;;
77332;SDS011;66408;51.326;12.070;2023-07-29T01:16:10;1.30;;;0.93;;
77332;SDS011;66408;51.326;12.070;2023-07-29T01:18:43;1.33;;;0.98;;
77332;SDS011;66408;51.326;12.070;2023-07-29T01:21:14;1.33;;;0.98;;
77332;SDS011;66408;51.326;12.070;2023-07-29T01:26:48;1.40;;;1.00;;
77332;SDS011;66408;51.326;12.070;2023-07-29T01:29:15;1.15;;;0.77;;
77332;SDS011;66408;51.326;12.070;2023-07-29T01:31:43;1.13;;;0.90;;
77332;SDS011;66408;51.326;12.070;2023-07-29T01:34:18;1.60;;;1.00;;
77332;SDS011;66408;51.326;12.070;2023-07-29T01:36:52;2.30;;;1.00;;
77332;SDS011;66408;51.326;12.070;2023-07-29T01:39:23;1.90;;;1.20;;
77332;SDS011;66408;51.326;12.070;2023-07-29T01:41:52;1.42;;;1.23;;
77332;SDS011;66408;51.326;12.070;2023-07-29T01:44:19;1.40;;;1.10;;
77332;SDS011;66408;51.326;12.070;2023-07-29T01:46:46;1.40;;;0.93;;
77332;SDS011;66408;51.326;12.070;2023-07-29T01:49:13;1.85;;;0.90;;
77332;SDS011;66408;51.326;12.070;2023-07-29T01:51:39;2.20;;;1.08;;
77332;SDS011;66408;51.326;12.070;2023-07-29T01:54:06;1.67;;;1.13;;
77332;SDS011;66408;51.326;12.070;2023-07-29T01:56:32;1.98;;;1.20;;
77332;SDS011;66408;51.326;12.070;2023-07-29T01:59:00;1.40;;;1.02;;
77332;SDS011;66408;51.326;12.070;2023-07-29T02:01:26;1.90;;;1.10;;
77332;SDS011;66408;51.326;12.070;2023-07-29T02:03:53;1.90;;;1.27;;
77332;SDS011;66408;51.326;12.070;2023-07-29T02:06:22;1.30;;;0.90;;
77332;SDS011;66408;51.326;12.070;2023-07-29T02:08:48;1.77;;;1.05;;
77332;SDS011;66408;51.326;12.070;2023-07-29T02:11:15;1.83;;;1.13;;
77332;SDS011;66408;51.326;12.070;2023-07-29T02:13:41;1.63;;;1.00;;
77332;SDS011;66408;51.326;12.070;2023-07-29T02:16:08;1.85;;;1.10;;
77332;SDS011;66408;51.326;12.070;2023-07-29T02:18:34;1.63;;;1.25;;
77332;SDS011;66408;51.326;12.070;2023-07-29T02:21:01;1.67;;;1.10;;
77332;SDS011;66408;51.326;12.070;2023-07-29T02:23:27;1.60;;;1.20;;
77332;SDS011;66408;51.326;12.070;2023-07-29T02:25:54;1.80;;;1.17;;
77332;SDS011;66408;51.326;12.070;2023-07-29T02:28:20;1.77;;;1.35;;
77332;SDS011;66408;51.326;12.070;2023-07-29T02:30:47;1.27;;;1.05;;
77332;SDS011;66408;51.326;12.070;2023-07-29T02:33:51;1.42;;;1.10;;
77332;SDS011;66408;51.326;12.070;2023-07-29T02:36:18;1.70;;;1.30;;
77332;SDS011;66408;51.326;12.070;2023-07-29T02:38:45;2.65;;;1.25;;
77332;SDS011;66408;51.326;12.070;2023-07-29T02:41:11;1.40;;;1.00;;
77332;SDS011;66408;51.326;12.070;2023-07-29T02:43:39;1.52;;;1.23;;
77332;SDS011;66408;51.326;12.070;2023-07-29T02:46:07;2.20;;;1.20;;
77332;SDS011;66408;51.326;12.070;2023-07-29T02:48:34;1.73;;;1.30;;
77332;SDS011;66408;51.326;12.070;2023-07-29T02:51:00;2.45;;;1.30;;
77332;SDS011;66408;51.326;12.070;2023-07-29T02:53:27;2.47;;;1.20;;
77332;SDS011;66408;51.326;12.070;2023-07-29T02:55:53;2.53;;;1.30;;
77332;SDS011;66408;51.326;12.070;2023-07-29T02:58:20;2.03;;;1.20;;
77332;SDS011;66408;51.326;12.070;2023-07-29T03:00:46;2.10;;;1.20;;
77332;SDS011;66408;51.326;12.070;2023-07-29T03:03:14;2.15;;;1.48;;
77332;SDS011;66408;51.326;12.070;2023-07-29T03:05:41;1.52;;;1.10;;
77332;SDS011;66408;51.326;12.070;2023-07-29T03:08:08;1.70;;;1.17;;
77332;SDS011;66408;51.326;12.070;2023-07-29T03:10:35;1.65;;;1.33;;
77332;SDS011;66408;51.326;12.070;2023-07-29T03:13:02;2.33;;;1.17;;
77332;SDS011;66408;51.326;12.070;2023-07-29T03:15:29;1.50;;;1.10;;
77332;SDS011;66408;51.326;12.070;2023-07-29T03:17:56;2.13;;;1.23;;
77332;SDS011;66408;51.326;12.070;2023-07-29T03:20:22;1.85;;;1.35;;
77332;SDS011;66408;51.326;12.070;2023-07-29T03:22:49;1.60;;;1.20;;
77332;SDS011;66408;51.326;12.070;2023-07-29T03:25:15;2.70;;;1.40;;
77332;SDS011;66408;51.326;12.070;2023-07-29T03:27:42;2.33;;;1.25;;
77332;SDS011;66408;51.326;12.070;2023-07-29T03:30:09;1.95;;;1.48;;
77332;SDS011;66408;51.326;12.070;2023-07-29T03:32:37;2.53;;;1.40;;
77332;SDS011;66408;51.326;12.070;2023-07-29T03:35:07;2.00;;;1.45;;
77332;SDS011;66408;51.326;12.070;2023-07-29T03:37:33;1.98;;;1.20;;
77332;SDS011;66408;51.326;12.070;2023-07-29T03:40:00;1.50;;;1.20;;
77332;SDS011;66408;51.326;12.070;2023-07-29T03:42:30;2.17;;;1.45;;
77332;SDS011;66408;51.326;12.070;2023-07-29T03:44:57;1.60;;;1.30;;
77332;SDS011;66408;51.326;12.070;2023-07-29T03:47:23;2.10;;;1.30;;
77332;SDS011;66408;51.326;12.070;2023-07-29T03:49:50;1.90;;;1.40;;
77332;SDS011;66408;51.326;12.070;2023-07-29T03:52:16;1.77;;;1.40;;
77332;SDS011;66408;51.326;12.070;2023-07-29T03:54:43;2.42;;;1.27;;
77332;SDS011;66408;51.326;12.070;2023-07-29T03:57:09;1.88;;;1.50;;
77332;SDS011;66408;51.326;12.070;2023-07-29T03:59:36;1.70;;;1.20;;
77332;SDS011;66408;51.326;12.070;2023-07-29T04:02:02;1.98;;;1.27;;
77332;SDS011;66408;51.326;12.070;2023-07-29T04:04:29;2.33;;;1.40;;
77332;SDS011;66408;51.326;12.070;2023-07-29T04:06:56;1.60;;;1.10;;
77332;SDS011;66408;51.326;12.070;2023-07-29T04:09:22;1.85;;;1.27;;
77332;SDS011;66408;51.326;12.070;2023-07-29T04:11:49;2.30;;;1.20;;
77332;SDS011;66408;51.326;12.070;2023-07-29T04:14:16;2.33;;;1.40;;
77332;SDS011;66408;51.326;12.070;2023-07-29T04:16:43;2.10;;;1.42;;
77332;SDS011;66408;51.326;12.070;2023-07-29T04:19:11;1.92;;;1.40;;
77332;SDS011;66408;51.326;12.070;2023-07-29T04:21:37;3.20;;;1.50;;
77332;SDS011;66408;51.326;12.070;2023-07-29T04:24:04;2.65;;;1.40;;
77332;SDS011;66408;51.326;12.070;2023-07-29T04:26:30;1.98;;;1.58;;
77332;SDS011;66408;51.326;12.070;2023-07-29T04:29:07;1.80;;;1.25;;
77332;SDS011;66408;51.326;12.070;2023-07-29T04:31:33;2.60;;;1.25;;
77332;SDS011;66408;51.326;12.070;2023-07-29T04:34:00;3.45;;;1.20;;
77332;SDS011;66408;51.326;12.070;2023-07-29T04:36:28;2.10;;;1.30;;
77332;SDS011;66408;51.326;12.070;2023-07-29T04:41:41;2.92;;;1.60;;
77332;SDS011;66408;51.326;12.070;2023-07-29T04:44:07;1.80;;;1.30;;
77332;SDS011;66408;51.326;12.070;2023-07-29T04:46:35;1.77;;;1.40;;
77332;SDS011;66408;51.326;12.070;2023-07-29T04:49:02;2.65;;;1.50;;
77332;SDS011;66408;51.326;12.070;2023-07-29T04:51:28;2.28;;;1.60;;
77332;SDS011;66408;51.326;12.070;2023-07-29T04:53:55;1.80;;;1.45;;
77332;SDS011;66408;51.326;12.070;2023-07-29T04:56:21;2.83;;;1.52;;
77332;SDS011;66408;51.326;12.070;2023-07-29T04:58:48;2.95;;;1.50;;
77332;SDS011;66408;51.326;12.070;2023-07-29T05:01:14;1.67;;;1.40;;
77332;SDS011;66408;51.326;12.070;2023-07-29T05:03:41;2.40;;;1.40;;
77332;SDS011;66408;51.326;12.070;2023-07-29T05:06:07;1.85;;;1.30;;
77332;SDS011;66408;51.326;12.070;2023-07-29T05:08:34;1.70;;;1.45;;
77332;SDS011;66408;51.326;12.070;2023-07-29T05:11:01;1.83;;;1.30;;
77332;SDS011;66408;51.326;12.070;2023-07-29T05:13:27;1.50;;;1.10;;
77332;SDS011;66408;51.326;12.070;2023-07-29T05:15:54;1.95;;;1.33;;
77332;SDS011;66408;51.326;12.070;2023-07-29T05:18:21;3.20;;;1.58;;
77332;SDS011;66408;51.326;12.070;2023-07-29T05:20:47;2.65;;;1.50;;
77332;SDS011;66408;51.326;12.070;2023-07-29T05:23:14;1.90;;;1.50;;
77332;SDS011;66408;51.326;12.070;2023-07-29T05:25:40;2.08;;;1.60;;
77332;SDS011;66408;51.326;12.070;2023-07-29T05:28:07;2.63;;;1.48;;
77332;SDS011;66408;51.326;12.070;2023-07-29T05:30:34;1.65;;;1.30;;
77332;SDS011;66408;51.326;12.070;2023-07-29T05:33:03;2.38;;;1.60;;
77332;SDS011;66408;51.326;12.070;2023-07-29T05:35:31;2.97;;;1.73;;
77332;SDS011;66408;51.326;12.070;2023-07-29T05:37:57;2.17;;;1.63;;
77332;SDS011;66408;51.326;12.070;2023-07-29T05:40:24;2.90;;;1.60;;
77332;SDS011;66408;51.326;12.070;2023-07-29T05:42:50;1.98;;;1.67;;
77332;SDS011;66408;51.326;12.070;2023-07-29T05:45:16;1.70;;;1.38;;
77332;SDS011;66408;51.326;12.070;2023-07-29T05:47:43;3.70;;;1.90;;
77332;SDS011;66408;51.326;12.070;2023-07-29T05:50:10;3.60;;;1.60;;
77332;SDS011;66408;51.326;12.070;2023-07-29T05:52:36;2.22;;;1.80;;
77332;SDS011;66408;51.326;12.070;2023-07-29T05:55:03;2.20;;;1.90;;
77332;SDS011;66408;51.326;12.070;2023-07-29T05:57:30;2.08;;;1.60;;
77332;SDS011;66408;51.326;12.070;2023-07-29T05:59:56;2.50;;;1.70;;
77332;SDS011;66408;51.326;12.070;2023-07-29T06:02:22;2.78;;;1.60;;
77332;SDS011;66408;51.326;12.070;2023-07-29T06:04:49;1.92;;;1.65;;
77332;SDS011;66408;51.326;12.070;2023-07-29T06:07:15;2.53;;;1.95;;
77332;SDS011;66408;51.326;12.070;2023-07-29T06:09:42;1.83;;;1.50;;
77332;SDS011;66408;51.326;12.070;2023-07-29T06:12:08;1.92;;;1.67;;
77332;SDS011;66408;51.326;12.070;2023-07-29T06:14:35;1.65;;;1.50;;
77332;SDS011;66408;51.326;12.070;2023-07-29T06:17:02;2.17;;;1.50;;
77332;SDS011;66408;51.326;12.070;2023-07-29T06:19:28;2.20;;;1.60;;
77332;SDS011;66408;51.326;12.070;2023-07-29T06:21:55;2.15;;;1.50;;
77332;SDS011;66408;51.326;12.070;2023-07-29T06:24:22;2.35;;;1.60;;
77332;SDS011;66408;51.326;12.070;2023-07-29T06:26:48;2.75;;;1.67;;
77332;SDS011;66408;51.326;12.070;2023-07-29T06:29:15;2.30;;;2.03;;
77332;SDS011;66408;51.326;12.070;2023-07-29T06:31:41;3.47;;;1.70;;
77332;SDS011;66408;51.326;12.070;2023-07-29T06:34:08;2.13;;;1.50;;
77332;SDS011;66408;51.326;12.070;2023-07-29T06:36:34;2.25;;;1.70;;
77332;SDS011;66408;51.326;12.070;2023-07-29T06:39:01;1.90;;;1.40;;
77332;SDS011;66408;51.326;12.070;2023-07-29T06:41:28;1.90;;;1.67;;
77332;SDS011;66408;51.326;12.070;2023-07-29T06:43:54;2.33;;;1.63;;
77332;SDS011;66408;51.326;12.070;2023-07-29T06:46:21;2.53;;;1.50;;
77332;SDS011;66408;51.326;12.070;2023-07-29T06:48:48;1.98;;;1.40;;
77332;SDS011;66408;51.326;12.070;2023-07-29T06:51:14;2.03;;;1.80;;
77332;SDS011;66408;51.326;12.070;2023-07-29T06:53:41;1.77;;;1.58;;
77332;SDS011;66408;51.326;12.070;2023-07-29T06:56:07;1.48;;;1.33;;
77332;SDS011;66408;51.326;12.070;2023-07-29T06:58:34;1.98;;;1.60;;
77332;SDS011;66408;51.326;12.070;2023-07-29T07:01:01;1.75;;;1.35;;
77332;SDS011;66408;51.326;12.070;2023-07-29T07:03:29;2.58;;;1.50;;
77332;SDS011;66408;51.326;12.070;2023-07-29T07:05:56;2.47;;;1.70;;
77332;SDS011;66408;51.326;12.070;2023-07-29T07:08:22;2.83;;;1.42;;
77332;SDS011;66408;51.326;12.070;2023-07-29T07:10:49;2.10;;;1.60;;
77332;SDS011;66408;51.326;12.070;2023-07-29T07:13:15;2.72;;;1.50;;
77332;SDS011;66408;51.326;12.070;2023-07-29T07:15:42;1.83;;;1.60;;
77332;SDS011;66408;51.326;12.070;2023-07-29T07:18:08;1.98;;;1.60;;
77332;SDS011;66408;51.326;12.070;2023-07-29T07:20:35;1.98;;;1.67;;
77332;SDS011;66408;51.326;12.070;2023-07-29T07:23:03;2.28;;;1.70;;
77332;SDS011;66408;51.326;12.070;2023-07-29T07:25:31;1.95;;;1.60;;
77332;SDS011;66408;51.326;12.070;2023-07-29T07:27:58;2.30;;;1.65;;
77332;SDS011;66408;51.326;12.070;2023-07-29T07:30:24;1.95;;;1.50;;
77332;SDS011;66408;51.326;12.070;2023-07-29T07:32:51;1.67;;;1.40;;
77332;SDS011;66408;51.326;12.070;2023-07-29T07:35:17;2.42;;;1.70;;
77332;SDS011;66408;51.326;12.070;2023-07-29T07:37:45;2.50;;;1.95;;
77332;SDS011;66408;51.326;12.070;2023-07-29T07:40:11;2.13;;;1.52;;
77332;SDS011;66408;51.326;12.070;2023-07-29T07:42:38;1.88;;;1.60;;
77332;SDS011;66408;51.326;12.070;2023-07-29T07:45:04;2.50;;;1.52;;
77332;SDS011;66408;51.326;12.070;2023-07-29T07:47:31;2.00;;;1.52;;
77332;SDS011;66408;51.326;12.070;2023-07-29T07:49:58;3.00;;;1.90;;
77332;SDS011;66408;51.326;12.070;2023-07-29T07:52:24;3.15;;;1.60;;
77332;SDS011;66408;51.326;12.070;2023-07-29T07:54:51;2.20;;;1.80;;
77332;SDS011;66408;51.326;12.070;2023-07-29T07:57:20;1.83;;;1.60;;
77332;SDS011;66408;51.326;12.070;2023-07-29T07:59:47;1.80;;;1.58;;
77332;SDS011;66408;51.326;12.070;2023-07-29T08:02:14;2.25;;;1.55;;
77332;SDS011;66408;51.326;12.070;2023-07-29T08:04:41;2.05;;;1.55;;
77332;SDS011;66408;51.326;12.070;2023-07-29T08:07:07;1.90;;;1.42;;
77332;SDS011;66408;51.326;12.070;2023-07-29T08:09:34;1.65;;;1.30;;
77332;SDS011;66408;51.326;12.070;2023-07-29T08:12:00;2.08;;;1.60;;
77332;SDS011;66408;51.326;12.070;2023-07-29T08:14:27;1.55;;;1.38;;
77332;SDS011;66408;51.326;12.070;2023-07-29T08:16:53;1.50;;;1.40;;
77332;SDS011;66408;51.326;12.070;2023-07-29T08:19:20;1.63;;;1.30;;
77332;SDS011;66408;51.326;12.070;2023-07-29T08:21:48;2.13;;;1.50;;
77332;SDS011;66408;51.326;12.070;2023-07-29T08:24:14;2.20;;;1.30;;
77332;SDS011;66408;51.326;12.070;2023-07-29T08:26:41;1.73;;;1.40;;
77332;SDS011;66408;51.326;12.070;2023-07-29T08:29:07;1.77;;;1.33;;
77332;SDS011;66408;51.326;12.070;2023-07-29T08:31:34;1.60;;;1.20;;
77332;SDS011;66408;51.326;12.070;2023-07-29T08:34:00;1.77;;;1.27;;
77332;SDS011;66408;51.326;12.070;2023-07-29T08:36:27;1.75;;;1.30;;
77332;SDS011;66408;51.326;12.070;2023-07-29T08:38:53;1.98;;;1.38;;
77332;SDS011;66408;51.326;12.070;2023-07-29T08:44:09;2.60;;;1.20;;
77332;SDS011;66408;51.326;12.070;2023-07-29T08:46:39;2.03;;;1.00;;
77332;SDS011;66408;51.326;12.070;2023-07-29T08:49:16;1.60;;;1.20;;
77332;SDS011;66408;51.326;12.070;2023-07-29T08:51:48;1.50;;;1.20;;
77332;SDS011;66408;51.326;12.070;2023-07-29T08:54:15;3.28;;;1.23;;
77332;SDS011;66408;51.326;12.070;2023-07-29T08:56:42;1.50;;;1.20;;
77332;SDS011;66408;51.326;12.070;2023-07-29T08:59:10;1.48;;;1.05;;
77332;SDS011;66408;51.326;12.070;2023-07-29T09:01:39;1.20;;;1.10;;
77332;SDS011;66408;51.326;12.070;2023-07-29T09:04:08;2.65;;;1.48;;
77332;SDS011;66408;51.326;12.070;2023-07-29T09:06:34;1.35;;;1.13;;
77332;SDS011;66408;51.326;12.070;2023-07-29T09:09:02;1.42;;;1.20;;
77332;SDS011;66408;51.326;12.070;2023-07-29T09:11:29;2.05;;;1.33;;
77332;SDS011;66408;51.326;12.070;2023-07-29T09:16:45;1.60;;;1.10;;
77332;SDS011;66408;51.326;12.070;2023-07-29T09:19:12;2.28;;;1.27;;
77332;SDS011;66408;51.326;12.070;2023-07-29T09:21:39;1.00;;;0.90;;
77332;SDS011;66408;51.326;12.070;2023-07-29T09:24:06;1.45;;;0.90;;
77332;SDS011;66408;51.326;12.070;2023-07-29T09:26:34;1.73;;;0.98;;
77332;SDS011;66408;51.326;12.070;2023-07-29T09:29:02;2.40;;;0.80;;
77332;SDS011;66408;51.326;12.070;2023-07-29T09:31:28;6.93;;;1.63;;
77332;SDS011;66408;51.326;12.070;2023-07-29T09:33:59;1.50;;;0.80;;
77332;SDS011;66408;51.326;12.070;2023-07-29T09:36:32;0.77;;;0.70;;
77332;SDS011;66408;51.326;12.070;2023-07-29T09:39:00;1.15;;;0.63;;
77332;SDS011;66408;51.326;12.070;2023-07-29T09:41:28;0.75;;;0.50;;
77332;SDS011;66408;51.326;12.070;2023-07-29T09:43:58;1.38;;;0.70;;
77332;SDS011;66408;51.326;12.070;2023-07-29T09:46:31;1.85;;;0.85;;
77332;SDS011;66408;51.326;12.070;2023-07-29T09:49:01;0.85;;;0.65;;
77332;SDS011;66408;51.326;12.070;2023-07-29T09:51:29;1.55;;;1.10;;
77332;SDS011;66408;51.326;12.070;2023-07-29T09:53:55;1.30;;;0.98;;
77332;SDS011;66408;51.326;12.070;2023-07-29T09:56:26;0.98;;;0.85;;
77332;SDS011;66408;51.326;12.070;2023-07-29T09:58:55;1.33;;;0.90;;
77332;SDS011;66408;51.326;12.070;2023-07-29T10:01:22;1.42;;;0.80;;
77332;SDS011;66408;51.326;12.070;2023-07-29T10:03:49;1.10;;;0.85;;
77332;SDS011;66408;51.326;12.070;2023-07-29T10:06:16;1.35;;;1.02;;
77332;SDS011;66408;51.326;12.070;2023-07-29T10:08:44;1.80;;;1.10;;
77332;SDS011;66408;51.326;12.070;2023-07-29T10:11:11;1.27;;;0.93;;
77332;SDS011;66408;51.326;12.070;2023-07-29T10:13:38;1.63;;;1.15;;
77332;SDS011;66408;51.326;12.070;2023-07-29T10:16:05;1.65;;;1.13;;
77332;SDS011;66408;51.326;12.070;2023-07-29T10:18:32;1.85;;;1.20;;
77332;SDS011;66408;51.326;12.070;2023-07-29T10:21:00;1.45;;;0.98;;
77332;SDS011;66408;51.326;12.070;2023-07-29T10:23:31;1.40;;;1.00;;
77332;SDS011;66408;51.326;12.070;2023-07-29T10:26:04;1.90;;;1.08;;
77332;SDS011;66408;51.326;12.070;2023-07-29T10:28:32;1.30;;;0.95;;
77332;SDS011;66408;51.326;12.070;2023-07-29T10:31:01;3.30;;;1.10;;
77332;SDS011;66408;51.326;12.070;2023-07-29T10:33:30;1.77;;;1.20;;
77332;SDS011;66408;51.326;12.070;2023-07-29T10:35:59;2.97;;;1.30;;
77332;SDS011;66408;51.326;12.070;2023-07-29T10:38:26;1.95;;;1.00;;
77332;SDS011;66408;51.326;12.070;2023-07-29T10:40:54;2.95;;;1.60;;
77332;SDS011;66408;51.326;12.070;2023-07-29T10:43:35;1.85;;;1.20;;
77332;SDS011;66408;51.326;12.070;2023-07-29T10:46:17;3.25;;;1.40;;
77332;SDS011;66408;51.326;12.070;2023-07-29T10:48:53;1.90;;;1.10;;
77332;SDS011;66408;51.326;12.070;2023-07-29T10:51:34;1.67;;;1.35;;
77332;SDS011;66408;51.326;12.070;2023-07-29T10:54:03;2.28;;;1.33;;
77332;SDS011;66408;51.326;12.070;2023-07-29T10:56:42;2.22;;;1.55;;
77332;SDS011;66408;51.326;12.070;2023-07-29T11:01:39;2.80;;;1.50;;
77332;SDS011;66408;51.326;12.070;2023-07-29T11:04:22;1.60;;;1.17;;
77332;SDS011;66408;51.326;12.070;2023-07-29T11:15:15;3.67;;;1.40;;
77332;SDS011;66408;51.326;12.070;2023-07-29T11:17:59;1.75;;;1.10;;
77332;SDS011;66408;51.326;12.070;2023-07-29T11:20:27;1.52;;;1.20;;
77332;SDS011;66408;51.326;12.070;2023-07-29T11:22:56;1.92;;;1.50;;
77332;SDS011;66408;51.326;12.070;2023-07-29T11:27:52;1.75;;;1.25;;
77332;SDS011;66408;51.326;12.070;2023-07-29T11:30:19;2.70;;;1.50;;
77332;SDS011;66408;51.326;12.070;2023-07-29T11:32:46;2.78;;;1.40;;
77332;SDS011;66408;51.326;12.070;2023-07-29T11:35:14;1.55;;;1.30;;
77332;SDS011;66408;51.326;12.070;2023-07-29T11:37:47;1.70;;;1.30;;
77332;SDS011;66408;51.326;12.070;2023-07-29T11:40:15;2.03;;;1.33;;
77332;SDS011;66408;51.326;12.070;2023-07-29T11:42:47;1.88;;;1.38;;
77332;SDS011;66408;51.326;12.070;2023-07-29T11:45:16;1.85;;;1.50;;
77332;SDS011;66408;51.326;12.070;2023-07-29T11:47:44;1.70;;;1.33;;
77332;SDS011;66408;51.326;12.070;2023-07-29T11:50:12;2.15;;;1.30;;
77332;SDS011;66408;51.326;12.070;2023-07-29T11:52:41;1.77;;;1.13;;
77332;SDS011;66408;51.326;12.070;2023-07-29T11:57:36;2.00;;;1.38;;
77332;SDS011;66408;51.326;12.070;2023-07-29T12:02:37;3.03;;;1.42;;
77332;SDS011;66408;51.326;12.070;2023-07-29T12:05:05;2.38;;;1.30;;
77332;SDS011;66408;51.326;12.070;2023-07-29T12:07:34;2.80;;;1.45;;
77332;SDS011;66408;51.326;12.070;2023-07-29T12:10:02;2.25;;;1.60;;
77332;SDS011;66408;51.326;12.070;2023-07-29T12:14:56;1.85;;;1.20;;
77332;SDS011;66408;51.326;12.070;2023-07-29T12:17:23;1.52;;;1.25;;
77332;SDS011;66408;51.326;12.070;2023-07-29T12:19:50;1.60;;;1.20;;
77332;SDS011;66408;51.326;12.070;2023-07-29T12:22:21;1.70;;;1.20;;
77332;SDS011;66408;51.326;12.070;2023-07-29T12:24:48;1.63;;;1.23;;
77332;SDS011;66408;51.326;12.070;2023-07-29T12:27:17;1.70;;;1.10;;
77332;SDS011;66408;51.326;12.070;2023-07-29T12:29:44;2.33;;;1.25;;
77332;SDS011;66408;51.326;12.070;2023-07-29T12:34:40;2.92;;;1.27;;
77332;SDS011;66408;51.326;12.070;2023-07-29T12:37:07;1.60;;;1.35;;
77332;SDS011;66408;51.326;12.070;2023-07-29T12:39:34;1.70;;;1.25;;
77332;SDS011;66408;51.326;12.070;2023-07-29T12:42:02;1.40;;;1.20;;
77332;SDS011;66408;51.326;12.070;2023-07-29T12:44:31;1.75;;;1.20;;
77332;SDS011;66408;51.326;12.070;2023-07-29T12:47:00;2.33;;;1.13;;
77332;SDS011;66408;51.326;12.070;2023-07-29T12:49:29;2.50;;;1.20;;
77332;SDS011;66408;51.326;12.070;2023-07-29T12:51:56;1.35;;;1.13;;
77332;SDS011;66408;51.326;12.070;2023-07-29T12:54:23;1.40;;;1.15;;
77332;SDS011;66408;51.326;12.070;2023-07-29T12:56:50;1.70;;;1.30;;
77332;SDS011;66408;51.326;12.070;2023-07-29T12:59:17;1.92;;;1.08;;
77332;SDS011;66408;51.326;12.070;2023-07-29T13:01:44;1.65;;;1.13;;
77332;SDS011;66408;51.326;12.070;2023-07-29T13:04:10;1.50;;;1.20;;
77332;SDS011;66408;51.326;12.070;2023-07-29T13:06:37;1.75;;;1.05;;
77332;SDS011;66408;51.326;12.070;2023-07-29T13:09:04;1.70;;;1.05;;
77332;SDS011;66408;51.326;12.070;2023-07-29T13:11:31;1.67;;;1.10;;
77332;SDS011;66408;51.326;12.070;2023-07-29T13:13:59;1.73;;;1.15;;
77332;SDS011;66408;51.326;12.070;2023-07-29T13:16:30;1.38;;;1.20;;
77332;SDS011;66408;51.326;12.070;2023-07-29T13:18:56;1.48;;;1.02;;
77332;SDS011;66408;51.326;12.070;2023-07-29T13:21:23;1.33;;;1.17;;
77332;SDS011;66408;51.326;12.070;2023-07-29T13:23:50;1.67;;;1.20;;
77332;SDS011;66408;51.326;12.070;2023-07-29T13:26:18;1.77;;;1.27;;
77332;SDS011;66408;51.326;12.070;2023-07-29T13:28:44;2.22;;;1.27;;
77332;SDS011;66408;51.326;12.070;2023-07-29T13:31:11;3.05;;;1.48;;
77332;SDS011;66408;51.326;12.070;2023-07-29T13:33:37;1.65;;;1.15;;
77332;SDS011;66408;51.326;12.070;2023-07-29T13:36:05;2.67;;;1.08;;
77332;SDS011;66408;51.326;12.070;2023-07-29T13:38:31;1.58;;;1.38;;
77332;SDS011;66408;51.326;12.070;2023-07-29T13:40:58;2.00;;;1.40;;
77332;SDS011;66408;51.326;12.070;2023-07-29T13:43:25;1.67;;;1.40;;
77332;SDS011;66408;51.326;12.070;2023-07-29T13:45:51;2.03;;;1.25;;
77332;SDS011;66408;51.326;12.070;2023-07-29T13:48:18;1.83;;;1.30;;
77332;SDS011;66408;51.326;12.070;2023-07-29T13:50:46;1.70;;;1.45;;
77332;SDS011;66408;51.326;12.070;2023-07-29T13:53:12;3.60;;;1.58;;
77332;SDS011;66408;51.326;12.070;2023-07-29T13:55:39;2.42;;;1.40;;
77332;SDS011;66408;51.326;12.070;2023-07-29T13:58:06;1.95;;;1.35;;
77332;SDS011;66408;51.326;12.070;2023-07-29T14:00:32;3.15;;;1.70;;
77332;SDS011;66408;51.326;12.070;2023-07-29T14:02:59;1.80;;;1.35;;
77332;SDS011;66408;51.326;12.070;2023-07-29T14:05:25;1.92;;;1.50;;
77332;SDS011;66408;51.326;12.070;2023-07-29T14:07:52;2.63;;;1.50;;
77332;SDS011;66408;51.326;12.070;2023-07-29T14:10:19;2.08;;;1.40;;
77332;SDS011;66408;51.326;12.070;2023-07-29T14:12:45;3.25;;;1.92;;
77332;SDS011;66408;51.326;12.070;2023-07-29T14:15:12;2.70;;;1.50;;
77332;SDS011;66408;51.326;12.070;2023-07-29T14:17:38;3.15;;;1.67;;
77332;SDS011;66408;51.326;12.070;2023-07-29T14:20:05;2.28;;;1.60;;
77332;SDS011;66408;51.326;12.070;2023-07-29T14:22:32;1.83;;;1.35;;
77332;SDS011;66408;51.326;12.070;2023-07-29T14:24:58;2.28;;;1.50;;
77332;SDS011;66408;51.326;12.070;2023-07-29T14:27:26;2.45;;;1.52;;
77332;SDS011;66408;51.326;12.070;2023-07-29T14:29:53;1.92;;;1.20;;
77332;SDS011;66408;51.326;12.070;2023-07-29T14:32:20;5.97;;;1.60;;
77332;SDS011;66408;51.326;12.070;2023-07-29T14:34:49;2.47;;;1.60;;
77332;SDS011;66408;51.326;12.070;2023-07-29T14:37:15;2.83;;;1.58;;
77332;SDS011;66408;51.326;12.070;2023-07-29T14:39:42;3.35;;;1.30;;
77332;SDS011;66408;51.326;12.070;2023-07-29T14:42:08;2.60;;;1.48;;
77332;SDS011;66408;51.326;12.070;2023-07-29T14:44:35;2.60;;;1.30;;
77332;SDS011;66408;51.326;12.070;2023-07-29T14:47:02;2.55;;;1.23;;
77332;SDS011;66408;51.326;12.070;2023-07-29T14:49:28;2.92;;;1.60;;
77332;SDS011;66408;51.326;12.070;2023-07-29T14:51:54;2.45;;;1.55;;
77332;SDS011;66408;51.326;12.070;2023-07-29T14:54:24;3.13;;;1.42;;
77332;SDS011;66408;51.326;12.070;2023-07-29T14:56:51;4.82;;;1.52;;
77332;SDS011;66408;51.326;12.070;2023-07-29T14:59:17;3.25;;;1.58;;
77332;SDS011;66408;51.326;12.070;2023-07-29T15:01:44;4.97;;;1.63;;
77332;SDS011;66408;51.326;12.070;2023-07-29T15:04:10;6.10;;;2.13;;
77332;SDS011;66408;51.326;12.070;2023-07-29T15:06:37;3.50;;;1.52;;
77332;SDS011;66408;51.326;12.070;2023-07-29T15:09:05;2.90;;;1.67;;
77332;SDS011;66408;51.326;12.070;2023-07-29T15:11:32;4.45;;;1.95;;
77332;SDS011;66408;51.326;12.070;2023-07-29T15:13:59;5.05;;;1.98;;
77332;SDS011;66408;51.326;12.070;2023-07-29T15:16:26;2.78;;;1.80;;
77332;SDS011;66408;51.326;12.070;2023-07-29T15:18:53;2.33;;;1.30;;